createdAt,value
2019-02-20T00:00:08.921Z,89.61
2019-02-20T00:05:07.660Z,89.78
2019-02-20T00:10:07.058Z,88.83
2019-02-20T00:15:08.011Z,88.18
2019-02-20T00:20:06.869Z,88.21
2019-02-20T00:25:07.724Z,87.98
2019-02-20T00:29:07.775Z,87.48
2019-02-20T00:34:08.996Z,87.56
2019-02-20T00:39:07.239Z,88.2
2019-02-20T00:44:07.034Z,88.13
2019-02-20T00:49:06.893Z,88.94
2019-02-20T00:54:06.843Z,89
2019-02-20T00:59:06.813Z,88.3
2019-02-20T01:04:06.872Z,88.1
2019-02-20T01:08:07.102Z,87.44
2019-02-20T01:13:07.365Z,87.7
2019-02-20T01:18:07.192Z,88.45
2019-02-20T01:23:07.069Z,88.66
2019-02-20T01:28:07.218Z,89.33
2019-02-20T01:33:07.283Z,90.03
2019-02-20T01:38:07.030Z,89.45
2019-02-20T01:43:07.573Z,89.9
2019-02-20T01:47:07.143Z,90.7
2019-02-20T01:52:06.904Z,90.34
2019-02-20T01:57:06.811Z,90.29
2019-02-20T02:02:08.735Z,90.55
2019-02-20T02:07:08.814Z,91.21
2019-02-20T02:12:08.225Z,91.35
2019-02-20T02:17:07.623Z,90.89
2019-02-20T02:21:07.530Z,92.06
2019-02-20T02:26:11.791Z,91.7
2019-02-20T02:31:07.392Z,90.84
2019-02-20T02:36:07.372Z,90.32
2019-02-20T02:41:07.623Z,88.96
2019-02-20T02:46:07.680Z,88.81
2019-02-20T02:51:07.613Z,89.47
2019-02-20T02:56:07.584Z,88.03
2019-02-20T03:00:08.842Z,88.01
2019-02-20T03:05:06.864Z,87.14
2019-02-20T03:10:07.519Z,86.76
2019-02-20T03:15:09.172Z,86.76
2019-02-20T03:20:06.977Z,86.61
2019-02-20T03:25:06.965Z,87.65
2019-02-20T03:30:08.551Z,87.56
2019-02-20T03:34:09.728Z,87.49
2019-02-20T03:39:08.328Z,86.82
2019-02-20T03:40:07.507Z,86.82
2019-02-20T03:44:07.572Z,87
2019-02-20T03:49:07.254Z,86.46
2019-02-20T03:54:07.270Z,86.02
2019-02-20T03:59:07.182Z,85.18
2019-02-20T04:04:07.471Z,84.39
2019-02-20T04:09:07.884Z,84.46
2019-02-20T04:13:06.861Z,83.99
2019-02-20T04:18:07.493Z,84.16
2019-02-20T04:23:07.471Z,83.89
2019-02-20T04:28:07.508Z,84.08
2019-02-20T04:33:07.456Z,84.33
2019-02-20T04:38:07.479Z,82.89
2019-02-20T04:43:06.969Z,83.86
2019-02-20T04:48:07.577Z,85.31
2019-02-20T04:52:07.540Z,86.42
2019-02-20T04:57:07.603Z,85.7
2019-02-20T05:02:07.002Z,84.15
2019-02-20T05:07:06.965Z,83.3
2019-02-20T05:12:07.433Z,83.65
2019-02-20T05:17:07.506Z,84.63
2019-02-20T05:22:07.540Z,84.74
2019-02-20T05:27:06.980Z,83.31
2019-02-20T05:31:07.405Z,82.68
2019-02-20T05:36:07.349Z,82.04
2019-02-20T05:41:06.715Z,82.23
2019-02-20T05:46:07.533Z,82.23
2019-02-20T05:51:07.235Z,81.92
2019-02-20T05:56:07.186Z,81.83
2019-02-20T06:01:07.684Z,82.49
2019-02-20T06:06:07.641Z,83.57
2019-02-20T06:10:07.092Z,84.86
2019-02-20T06:15:08.440Z,86.32
2019-02-20T06:20:07.502Z,86.52
2019-02-20T06:25:07.598Z,86.49
2019-02-20T06:30:08.966Z,86.4
2019-02-20T06:35:07.130Z,86.96
2019-02-20T06:40:07.508Z,87.77
2019-02-20T06:45:08.536Z,87.56
2019-02-20T06:49:07.622Z,87.61
2019-02-20T06:54:07.401Z,88.64
2019-02-20T06:59:07.263Z,88.83
2019-02-20T07:04:07.119Z,89.16
2019-02-20T07:09:07.371Z,88.52
2019-02-20T07:14:07.268Z,88.32
2019-02-20T07:19:06.905Z,87.27
2019-02-20T07:24:06.958Z,86.73
2019-02-20T07:28:07.302Z,86.37
2019-02-20T07:33:07.117Z,85.92
2019-02-20T07:38:07.037Z,85.4
2019-02-20T07:43:07.254Z,86.3
2019-02-20T07:48:06.923Z,84.88
2019-02-20T07:53:07.153Z,83.66
2019-02-20T07:58:07.673Z,82.36
2019-02-20T08:03:06.806Z,81.83
2019-02-20T08:07:07.093Z,80.49
2019-02-20T08:12:07.328Z,80.98
2019-02-20T08:17:07.111Z,80.31
2019-02-20T08:22:07.182Z,79.48
2019-02-20T08:27:07.101Z,79.54
2019-02-20T08:32:07.107Z,79.41
2019-02-20T08:37:07.054Z,79.7
2019-02-20T08:41:08.094Z,79.06
2019-02-20T08:46:07.070Z,79.16
2019-02-20T08:51:07.053Z,78.93
2019-02-20T08:56:06.974Z,79.35
2019-02-20T09:01:07.112Z,78.71
2019-02-20T09:06:07.259Z,78.1
2019-02-20T09:11:06.780Z,77.56
2019-02-20T09:15:08.068Z,77.57
2019-02-20T09:20:07.238Z,78.35
2019-02-20T09:25:07.355Z,77.35
2019-02-20T09:30:08.561Z,77.48
2019-02-20T09:35:06.684Z,78.16
2019-02-20T09:40:06.868Z,77.03
2019-02-20T09:45:09.566Z,76.7
2019-02-20T09:50:07.036Z,76.77
2019-02-20T09:54:07.804Z,75.65
2019-02-20T09:59:07.664Z,75.72
2019-02-20T10:04:06.860Z,73.78
2019-02-20T10:09:08.223Z,73.24
2019-02-20T10:14:06.965Z,73
2019-02-20T10:19:06.884Z,74.43
2019-02-20T10:24:06.795Z,73.4
2019-02-20T10:28:07.683Z,73.5
2019-02-20T10:33:07.352Z,73.56
2019-02-20T10:38:07.100Z,74.3
2019-02-20T10:43:07.598Z,73.05
2019-02-20T10:48:07.327Z,72.07
2019-02-20T10:53:07.114Z,69.93
2019-02-20T10:58:06.831Z,69.05
2019-02-20T11:03:06.827Z,70.13
2019-02-20T11:07:06.672Z,70.78
2019-02-20T11:12:06.962Z,70.23
2019-02-20T11:13:07.090Z,70.23
2019-02-20T11:17:06.806Z,69.52
2019-02-20T11:22:07.016Z,68.68
2019-02-20T11:27:07.561Z,68.18
2019-02-20T11:32:07.206Z,67.28
2019-02-20T11:37:06.922Z,68.38
2019-02-20T11:42:07.247Z,68.7
2019-02-20T11:46:07.478Z,67.76
2019-02-20T11:51:07.199Z,67.74
2019-02-20T11:56:07.076Z,68.05
2019-02-20T12:01:07.377Z,68.75
2019-02-20T12:06:07.173Z,69.25
2019-02-20T12:11:07.538Z,67.99
2019-02-20T12:16:07.149Z,67.09
2019-02-20T12:21:07.607Z,63.61
2019-02-20T12:25:07.474Z,65.04
2019-02-20T12:30:08.855Z,63.33
2019-02-20T12:35:06.846Z,62.21
2019-02-20T12:40:07.133Z,62.91
2019-02-20T12:45:08.347Z,63.16
2019-02-20T12:50:07.498Z,60.88
2019-02-20T12:55:07.240Z,63.89
2019-02-20T12:59:08.716Z,63.87
2019-02-20T13:04:06.821Z,64.88
2019-02-20T13:09:07.969Z,65.24
2019-02-20T13:14:06.962Z,63.94
2019-02-20T13:19:06.814Z,63.54
2019-02-20T13:24:06.920Z,62.65
2019-02-20T13:29:06.911Z,63.22
2019-02-20T13:33:06.960Z,62.33
2019-02-20T13:38:06.205Z,64.8
2019-02-20T13:43:07.338Z,64.42
2019-02-20T13:48:07.515Z,64.52
2019-02-20T13:53:07.598Z,65.05
2019-02-20T13:58:07.555Z,64.8
2019-02-20T14:03:07.144Z,65.18
2019-02-20T14:07:07.234Z,65.23
2019-02-20T14:12:08.630Z,65.42
2019-02-20T14:17:07.731Z,63.42
2019-02-20T14:22:08.641Z,64.85
2019-02-20T14:27:11.846Z,63.71
2019-02-20T14:32:06.846Z,64.51
2019-02-20T14:37:06.717Z,64.81
2019-02-20T14:41:06.992Z,64.55
2019-02-20T14:46:06.834Z,65.39
2019-02-20T14:47:06.947Z,65.39
2019-02-20T14:51:06.975Z,65.84
2019-02-20T14:56:06.883Z,65.67
2019-02-20T15:01:06.939Z,65.59
2019-02-20T15:06:06.814Z,67.25
2019-02-20T15:11:07.158Z,67.02
2019-02-20T15:16:06.837Z,66.17
2019-02-20T15:20:07.774Z,67.61
2019-02-20T15:25:07.158Z,66.85
2019-02-20T15:30:08.076Z,66.21
2019-02-20T15:35:07.398Z,66.7
2019-02-20T15:40:07.095Z,68.39
2019-02-20T15:45:07.998Z,67.54
2019-02-20T15:50:09.084Z,65.79
2019-02-20T15:54:07.677Z,67.45
2019-02-20T15:55:06.795Z,67.45
2019-02-20T15:59:06.842Z,67.89
2019-02-20T16:04:06.532Z,68.66
2019-02-20T16:09:07.493Z,68.87
2019-02-20T16:14:07.415Z,68.4
2019-02-20T16:19:07.024Z,68.9
2019-02-20T16:24:07.011Z,69.21
2019-02-20T16:28:07.633Z,69.84
2019-02-20T16:33:06.932Z,70.28
2019-02-20T16:38:06.909Z,71.02
2019-02-20T16:43:07.802Z,71.63
2019-02-20T16:48:07.024Z,73.08
2019-02-20T16:53:07.157Z,73.9
2019-02-20T16:58:07.661Z,72.45
2019-02-20T17:02:07.710Z,70.7
2019-02-20T17:07:07.667Z,71.3
2019-02-20T17:12:06.905Z,70.8
2019-02-20T17:17:06.889Z,70.99
2019-02-20T17:22:06.747Z,70.05
2019-02-20T17:27:07.717Z,71.07
2019-02-20T17:32:07.564Z,71.66
2019-02-20T17:36:08.441Z,73.19
2019-02-20T17:41:07.307Z,75.08
2019-02-20T17:46:07.138Z,76.34
2019-02-20T17:51:07.007Z,78.16
2019-02-20T17:56:06.700Z,79.01
2019-02-20T18:01:06.804Z,79.71
2019-02-20T18:06:07.716Z,80.55
2019-02-20T18:11:08.268Z,81.2
2019-02-20T18:15:08.946Z,81.02
2019-02-20T18:20:07.291Z,80.78
2019-02-20T18:25:07.249Z,81.09
2019-02-20T18:30:08.511Z,81.47
2019-02-20T18:35:07.416Z,81.33
2019-02-20T18:40:06.854Z,81.36
2019-02-20T18:45:08.308Z,81.64
2019-02-20T18:49:07.258Z,80.67
2019-02-20T18:54:07.250Z,79.98
2019-02-20T18:59:07.112Z,79.77
2019-02-20T19:04:08.873Z,79.67
2019-02-20T19:09:07.387Z,79.66
2019-02-20T19:14:10.043Z,81.79
2019-02-20T19:19:07.737Z,81.54
2019-02-20T19:23:06.998Z,81.75
2019-02-20T19:28:07.018Z,82.64
2019-02-20T19:33:06.810Z,83.31
2019-02-20T19:38:10.101Z,82.83
2019-02-20T19:43:07.506Z,82.81
2019-02-20T19:48:07.232Z,83.5
2019-02-20T19:53:07.173Z,83.77
2019-02-20T19:58:09.463Z,84.01
2019-02-20T20:02:08.168Z,83.95
2019-02-20T20:07:07.131Z,83.69
2019-02-20T20:12:07.623Z,84.15
2019-02-20T20:17:07.377Z,85.63
2019-02-20T20:22:07.290Z,86.43
2019-02-20T20:27:07.101Z,87.45
2019-02-20T20:32:06.828Z,87.5
2019-02-20T20:36:07.127Z,86.75
2019-02-20T20:41:10.297Z,86.4
2019-02-20T20:46:07.042Z,85.62
2019-02-20T20:51:06.920Z,85.12
2019-02-20T20:56:06.862Z,85.15
2019-02-20T21:01:07.274Z,85.42
2019-02-20T21:06:07.472Z,85.18
2019-02-20T21:11:07.186Z,85.07
2019-02-20T21:15:08.416Z,85.68
2019-02-20T21:20:07.131Z,86.3
2019-02-20T21:25:07.013Z,86.4
2019-02-20T21:30:08.159Z,86.23
2019-02-20T21:35:07.375Z,86.3
2019-02-20T21:40:07.479Z,86.7
2019-02-20T21:45:08.847Z,87.09
2019-02-20T21:49:07.069Z,87.46
2019-02-20T21:54:07.122Z,87.93
2019-02-20T21:59:07.035Z,87.43
2019-02-20T22:04:07.282Z,87.05
2019-02-20T22:09:07.445Z,86.53
2019-02-20T22:14:07.325Z,86.24
2019-02-20T22:19:06.767Z,85.82
2019-02-20T22:24:06.713Z,86.07
2019-02-20T22:28:07.516Z,86.49
2019-02-20T22:33:06.831Z,86.43
2019-02-20T22:38:07.561Z,86.56
2019-02-20T22:43:06.800Z,86.8
2019-02-20T22:48:07.684Z,87.23
2019-02-20T22:53:07.508Z,87.22
2019-02-20T22:58:09.164Z,87.17
2019-02-20T23:03:06.792Z,87.34
2019-02-20T23:07:08.121Z,87.04
2019-02-20T23:12:07.554Z,87.41
2019-02-20T23:17:07.438Z,87.46
2019-02-20T23:22:07.227Z,87.46
2019-02-20T23:27:07.074Z,87.46
2019-02-20T23:32:06.899Z,87.6
2019-02-20T23:37:06.868Z,87.76
2019-02-20T23:41:06.300Z,87.74
2019-02-20T23:46:06.404Z,87.7
2019-02-20T23:51:06.882Z,87.99
2019-02-20T23:56:05.988Z,88.68
